Time;durP1;ratioP1;P1;durP2;ratioP2;P2;SDS_P1;SDS_P2;PMS_P1;PMS_P2;Temp;Humidity;BMP_temperature;BMP_pressure;BME280_temperature;BME280_humidity;BME280_pressure;Samples;Min_cycle;Max_cycle;Signal;HPM_P1;HPM_P2
2021/08/09 00:00:03;;;;;;;9.53;9.10;;;23.30;90.60;;;;;;3626686;39;20451;-59
2021/08/09 00:02:39;;;;;;;9.80;9.40;;;23.30;90.60;;;;;;3626196;39;20534;-58
2021/08/09 00:05:07;;;;;;;9.70;9.10;;;23.30;90.60;;;;;;3626520;39;20447;-59
2021/08/09 00:07:34;;;;;;;9.47;9.07;;;23.30;90.60;;;;;;3627229;39;20682;-58
2021/08/09 00:10:04;;;;;;;9.80;9.30;;;23.30;90.60;;;;;;3626488;39;21131;-58
2021/08/09 00:12:31;;;;;;;10.40;9.90;;;23.30;90.60;;;;;;3626837;39;20767;-59
2021/08/09 00:14:59;;;;;;;9.70;9.20;;;23.30;90.70;;;;;;3626483;39;20507;-59
2021/08/09 00:17:26;;;;;;;10.50;9.87;;;23.30;90.60;;;;;;3626858;39;20451;-58
2021/08/09 00:19:53;;;;;;;10.10;9.60;;;23.30;90.60;;;;;;3626211;39;20489;-59
2021/08/09 00:22:20;;;;;;;9.90;9.50;;;23.30;90.60;;;;;;3626103;39;20502;-57
2021/08/09 00:24:48;;;;;;;11.17;10.13;;;23.30;90.70;;;;;;3626788;39;20486;-59
2021/08/09 00:27:17;;;;;;;10.00;9.60;;;23.30;90.70;;;;;;3628151;39;20548;-59
2021/08/09 00:29:44;;;;;;;9.43;9.13;;;23.30;90.70;;;;;;3628204;39;20716;-58
2021/08/09 00:32:11;;;;;;;10.37;9.77;;;23.30;90.70;;;;;;3626902;39;20454;-58
2021/08/09 00:34:39;;;;;;;9.67;9.20;;;23.30;90.70;;;;;;3627004;39;20464;-58
2021/08/09 00:37:07;;;;;;;10.00;9.60;;;23.30;90.70;;;;;;3626638;39;20453;-57
2021/08/09 00:39:35;;;;;;;9.63;9.23;;;23.30;90.70;;;;;;3626893;39;20803;-58
2021/08/09 00:42:04;;;;;;;10.30;9.80;;;23.30;90.70;;;;;;3628276;39;20478;-58
2021/08/09 00:44:33;;;;;;;9.50;8.93;;;23.30;90.70;;;;;;3626960;39;20542;-59
2021/08/09 00:47:00;;;;;;;8.97;8.67;;;23.30;90.70;;;;;;3627514;39;20469;-58
2021/08/09 00:49:28;;;;;;;9.60;9.20;;;23.30;90.70;;;;;;3627492;39;20439;-58
2021/08/09 00:52:04;;;;;;;9.70;9.20;;;23.30;90.70;;;;;;3626969;39;20546;-58
2021/08/09 00:54:32;;;;;;;9.80;9.40;;;23.30;90.70;;;;;;3627235;39;20447;-58
2021/08/09 00:57:00;;;;;;;10.30;9.90;;;23.30;90.70;;;;;;3625929;39;20505;-55
2021/08/09 00:59:28;;;;;;;9.93;9.53;;;23.30;90.70;;;;;;3626955;39;20498;-57
2021/08/09 01:01:57;;;;;;;9.60;9.00;;;23.30;90.80;;;;;;3626059;39;20547;-58
2021/08/09 01:04:25;;;;;;;9.70;9.10;;;23.30;90.80;;;;;;3626454;39;20542;-57
2021/08/09 01:06:54;;;;;;;9.87;9.30;;;23.30;90.80;;;;;;3626370;39;20531;-58
2021/08/09 01:09:27;;;;;;;9.10;8.60;;;23.30;90.80;;;;;;3627137;39;20450;-57
2021/08/09 01:12:00;;;;;;;9.50;9.00;;;23.30;90.80;;;;;;3626847;39;20475;-58
2021/08/09 01:14:43;;;;;;;9.70;9.30;;;23.30;90.80;;;;;;3626991;39;20872;-58
2021/08/09 01:17:15;;;;;;;9.63;9.10;;;23.30;90.80;;;;;;3626969;39;20497;-58
2021/08/09 01:20:00;;;;;;;8.80;8.50;;;23.30;90.80;;;;;;3626640;39;20538;-59
2021/08/09 01:22:36;;;;;;;9.30;8.80;;;23.30;90.80;;;;;;3627014;39;20804;-56
2021/08/09 01:25:16;;;;;;;9.60;9.20;;;23.30;90.80;;;;;;3626752;39;20442;-56
2021/08/09 01:27:49;;;;;;;9.43;9.03;;;23.30;90.80;;;;;;3628602;39;20536;-59
2021/08/09 01:30:17;;;;;;;9.00;8.60;;;23.30;90.80;;;;;;3626584;39;20458;-58
2021/08/09 01:32:46;;;;;;;9.57;9.17;;;23.30;90.80;;;;;;3626049;39;20545;-57
2021/08/09 01:35:16;;;;;;;9.73;9.23;;;23.30;90.80;;;;;;3625587;39;20477;-57
2021/08/09 01:37:47;;;;;;;9.77;9.27;;;23.30;90.80;;;;;;3626305;39;20470;-59
2021/08/09 01:40:17;;;;;;;8.90;8.50;;;23.30;90.80;;;;;;3625878;39;20543;-56
2021/08/09 01:42:48;;;;;;;9.30;8.80;;;23.30;90.80;;;;;;3625842;39;20454;-58
2021/08/09 01:45:18;;;;;;;9.43;9.00;;;23.30;90.80;;;;;;3626737;39;20831;-57
2021/08/09 01:47:47;;;;;;;8.97;8.57;;;23.30;90.80;;;;;;3627149;39;20498;-58
2021/08/09 01:50:16;;;;;;;10.97;10.17;;;23.30;91.20;;;;;;3626915;39;20442;-57
2021/08/09 01:52:45;;;;;;;10.20;9.73;;;23.30;90.80;;;;;;3626947;39;20454;-58
2021/08/09 01:55:18;;;;;;;10.00;9.47;;;23.30;90.80;;;;;;3625882;39;20459;-58
2021/08/09 01:57:53;;;;;;;10.37;9.87;;;23.30;90.80;;;;;;3626605;39;20501;-58
2021/08/09 02:00:23;;;;;;;10.50;9.70;;;23.30;90.80;;;;;;3626940;39;20969;-58
2021/08/09 02:02:54;;;;;;;10.33;9.90;;;23.30;90.80;;;;;;3627061;39;20458;-57
2021/08/09 02:05:23;;;;;;;10.90;10.30;;;23.30;90.80;;;;;;3626284;39;20564;-59
2021/08/09 02:08:04;;;;;;;11.10;10.40;;;23.30;90.80;;;;;;3626242;39;20449;-57
2021/08/09 02:10:32;;;;;;;10.10;9.60;;;23.30;90.90;;;;;;3627355;39;20501;-58
2021/08/09 02:13:12;;;;;;;10.50;10.00;;;23.30;90.90;;;;;;3626347;39;20915;-58
2021/08/09 02:15:51;;;;;;;10.73;10.13;;;23.30;90.90;;;;;;3626327;39;20457;-58
2021/08/09 02:18:25;;;;;;;10.57;10.07;;;23.30;90.90;;;;;;3625770;39;20459;-58
2021/08/09 02:21:00;;;;;;;9.30;8.90;;;23.30;90.90;;;;;;3627527;39;20447;-59
2021/08/09 02:23:37;;;;;;;10.93;10.43;;;23.30;90.90;;;;;;3626459;39;20454;-59
2021/08/09 02:26:06;;;;;;;10.77;10.27;;;23.30;90.90;;;;;;3626228;39;20515;-58
2021/08/09 02:28:35;;;;;;;9.80;9.40;;;23.30;90.90;;;;;;3625867;39;20462;-58
2021/08/09 02:31:07;;;;;;;10.03;9.43;;;23.30;90.90;;;;;;3626593;39;20800;-59
2021/08/09 02:33:36;;;;;;;9.97;9.57;;;23.30;90.90;;;;;;3626628;39;21051;-58
2021/08/09 02:36:05;;;;;;;10.30;9.80;;;23.30;91.20;;;;;;3626067;39;20457;-59
2021/08/09 02:38:34;;;;;;;9.50;9.10;;;23.30;90.90;;;;;;3625707;39;20466;-59
2021/08/09 02:41:02;;;;;;;10.63;10.03;;;23.30;90.90;;;;;;3626396;39;20470;-58
2021/08/09 02:43:31;;;;;;;10.07;9.47;;;23.30;90.90;;;;;;3625693;39;20466;-55
2021/08/09 02:46:02;;;;;;;10.80;10.30;;;23.30;90.90;;;;;;3626713;39;20485;-57
2021/08/09 02:48:31;;;;;;;9.87;9.27;;;23.30;90.90;;;;;;3625228;39;20446;-57
2021/08/09 02:50:59;;;;;;;10.30;9.70;;;23.20;90.80;;;;;;3626248;39;20478;-59
2021/08/09 02:53:27;;;;;;;10.13;9.70;;;23.30;90.90;;;;;;3626524;39;20452;-58
2021/08/09 02:56:01;;;;;;;10.20;9.70;;;23.30;90.90;;;;;;3626839;39;20669;-57
2021/08/09 02:58:31;;;;;;;10.97;10.47;;;23.30;90.90;;;;;;3625414;39;20856;-58
2021/08/09 03:01:01;;;;;;;11.37;10.87;;;23.30;90.90;;;;;;3626787;39;20473;-57
2021/08/09 03:03:30;;;;;;;10.70;10.10;;;23.20;90.80;;;;;;3625872;39;20454;-58
2021/08/09 03:05:59;;;;;;;10.30;9.80;;;23.30;90.90;;;;;;3625683;39;20454;-58
2021/08/09 03:08:27;;;;;;;10.20;9.70;;;23.20;90.80;;;;;;3625884;39;20446;-59
2021/08/09 03:10:56;;;;;;;10.47;9.87;;;23.20;90.90;;;;;;3626091;39;20494;-58
2021/08/09 03:13:25;;;;;;;11.03;10.30;;;23.20;90.80;;;;;;3625684;39;20458;-58
2021/08/09 03:15:55;;;;;;;10.17;9.67;;;23.20;90.80;;;;;;3626035;39;20439;-57
2021/08/09 03:18:23;;;;;;;10.13;9.63;;;23.20;90.80;;;;;;3626851;39;20844;-59
2021/08/09 03:20:51;;;;;;;10.80;10.20;;;23.30;90.90;;;;;;3626307;39;20442;-58
2021/08/09 03:23:18;;;;;;;9.93;9.50;;;23.20;90.80;;;;;;3625309;39;20759;-58
2021/08/09 03:25:46;;;;;;;10.60;10.10;;;23.30;91.20;;;;;;3625140;39;20527;-57
2021/08/09 03:28:13;;;;;;;10.53;10.03;;;23.30;90.90;;;;;;3624711;39;20481;-57
2021/08/09 03:30:41;;;;;;;10.30;9.90;;;23.20;90.90;;;;;;3625158;39;20447;-58
2021/08/09 03:33:09;;;;;;;10.90;10.37;;;23.20;90.80;;;;;;3624576;39;20466;-58
2021/08/09 03:35:39;;;;;;;10.73;10.23;;;23.30;90.90;;;;;;3624385;39;21113;-58
2021/08/09 03:38:06;;;;;;;10.17;9.67;;;23.20;90.80;;;;;;3624609;39;20454;-58
2021/08/09 03:40:34;;;;;;;9.70;9.30;;;23.20;90.80;;;;;;3625343;39;20461;-58
2021/08/09 03:43:03;;;;;;;10.83;10.33;;;23.20;90.80;;;;;;3624051;39;20771;-59
2021/08/09 03:45:30;;;;;;;10.33;9.83;;;23.20;90.80;;;;;;3625953;39;20442;-58
2021/08/09 03:47:57;;;;;;;11.70;11.10;;;23.20;90.80;;;;;;3626034;39;20446;-58
2021/08/09 03:50:25;;;;;;;10.80;10.40;;;23.20;90.80;;;;;;3625704;39;20454;-58
2021/08/09 03:52:56;;;;;;;11.27;10.77;;;23.20;90.80;;;;;;3625131;39;20447;-58
2021/08/09 03:55:23;;;;;;;10.50;10.10;;;23.20;90.80;;;;;;3624506;39;20458;-58
2021/08/09 03:57:51;;;;;;;11.03;10.53;;;23.20;90.80;;;;;;3623536;39;20474;-57
2021/08/09 04:00:19;;;;;;;11.23;10.73;;;23.20;90.80;;;;;;3625423;39;20443;-58
2021/08/09 04:02:49;;;;;;;10.93;10.43;;;23.20;90.80;;;;;;3624846;39;20555;-59
2021/08/09 04:05:25;;;;;;;10.77;10.20;;;23.20;90.80;;;;;;3625788;39;20478;-58
2021/08/09 04:07:54;;;;;;;11.77;11.17;;;23.20;90.80;;;;;;3617180;39;20465;-60
2021/08/09 04:10:22;;;;;;;11.17;10.67;;;23.20;90.80;;;;;;3625012;39;20463;-58
2021/08/09 04:12:50;;;;;;;11.40;10.90;;;23.20;90.80;;;;;;3626203;39;20462;-57
2021/08/09 04:15:18;;;;;;;10.80;10.30;;;23.20;90.80;;;;;;3626200;39;20461;-58
2021/08/09 04:17:46;;;;;;;11.40;10.90;;;23.20;90.70;;;;;;3617758;39;20489;-58
2021/08/09 04:20:14;;;;;;;11.13;10.63;;;23.20;90.70;;;;;;3625626;39;20446;-58
2021/08/09 04:22:41;;;;;;;10.80;10.37;;;23.20;90.70;;;;;;3626224;39;20687;-58
2021/08/09 04:25:11;;;;;;;11.47;10.77;;;23.20;90.70;;;;;;3625140;39;20462;-58
2021/08/09 04:27:39;;;;;;;10.90;10.43;;;23.20;90.70;;;;;;3624981;39;20446;-59
2021/08/09 04:30:07;;;;;;;11.20;10.77;;;23.20;90.70;;;;;;3624943;39;20821;-58
2021/08/09 04:32:40;;;;;;;11.20;10.80;;;23.20;90.70;;;;;;3622889;39;20851;-58
2021/08/09 04:35:11;;;;;;;10.63;10.23;;;23.20;90.70;;;;;;3622828;39;20888;-57
2021/08/09 04:37:41;;;;;;;11.90;11.40;;;23.20;90.70;;;;;;3624750;39;21074;-57
2021/08/09 04:40:12;;;;;;;11.10;10.70;;;23.20;90.70;;;;;;3623941;39;20484;-57
2021/08/09 04:42:39;;;;;;;11.63;11.10;;;23.20;90.70;;;;;;3624838;39;20546;-59
2021/08/09 04:45:10;;;;;;;10.90;10.50;;;23.20;90.70;;;;;;3621878;39;20454;-57
2021/08/09 04:47:38;;;;;;;11.97;11.47;;;23.20;90.70;;;;;;3623408;39;20539;-58
2021/08/09 04:50:07;;;;;;;12.10;11.30;;;23.20;90.70;;;;;;3621797;39;20470;-58
2021/08/09 04:52:40;;;;;;;11.87;11.20;;;23.20;90.70;;;;;;3621794;39;20453;-58
2021/08/09 04:55:11;;;;;;;11.77;11.20;;;23.20;90.70;;;;;;3620790;39;20466;-58
2021/08/09 04:57:38;;;;;;;11.53;10.93;;;23.20;90.70;;;;;;3621605;39;20458;-59
2021/08/09 05:00:08;;;;;;;11.80;11.30;;;23.20;90.70;;;;;;3621167;39;20438;-59
2021/08/09 05:02:38;;;;;;;11.57;11.07;;;23.20;90.70;;;;;;3621178;39;20532;-58
2021/08/09 05:05:08;;;;;;;11.37;10.97;;;23.20;90.70;;;;;;3620041;39;20510;-58
2021/08/09 05:07:35;;;;;;;11.40;10.80;;;23.20;90.70;;;;;;3611415;39;20499;-58
2021/08/09 05:10:05;;;;;;;10.87;10.47;;;23.20;90.70;;;;;;3619318;39;20466;-58
2021/08/09 05:12:36;;;;;;;11.90;11.10;;;23.20;90.70;;;;;;3620031;39;20463;-58
2021/08/09 05:15:07;;;;;;;10.80;10.30;;;23.20;90.70;;;;;;3619477;39;20450;-57
2021/08/09 05:17:35;;;;;;;10.50;10.00;;;23.20;90.60;;;;;;3619923;39;20462;-58
2021/08/09 05:20:04;;;;;;;10.83;10.30;;;23.20;90.60;;;;;;3617929;39;20447;-58
2021/08/09 05:22:32;;;;;;;11.37;10.87;;;23.20;90.60;;;;;;3619050;39;21189;-57
2021/08/09 05:25:00;;;;;;;11.83;11.23;;;23.20;90.60;;;;;;3620094;39;20743;-58
2021/08/09 05:27:28;;;;;;;12.17;11.60;;;23.20;90.60;;;;;;3621153;39;20506;-59
2021/08/09 05:29:57;;;;;;;12.03;11.53;;;23.20;90.60;;;;;;3617577;39;20478;-59
2021/08/09 05:32:24;;;;;;;12.40;11.80;;;23.20;90.60;;;;;;3615466;39;21101;-58
2021/08/09 05:34:51;;;;;;;12.27;11.67;;;23.20;90.60;;;;;;3616427;39;20619;-58
2021/08/09 05:37:19;;;;;;;12.10;11.50;;;23.30;90.70;;;;;;3617188;39;20566;-59
2021/08/09 05:39:47;;;;;;;12.50;11.80;;;23.20;90.50;;;;;;3615930;39;20514;-59
2021/08/09 05:42:15;;;;;;;11.03;10.53;;;23.20;90.20;;;;;;3617802;39;20461;-58
2021/08/09 05:44:43;;;;;;;11.33;10.83;;;23.20;90.10;;;;;;3616728;39;20451;-59
2021/08/09 05:47:11;;;;;;;11.20;10.60;;;23.20;89.20;;;;;;3616037;39;20431;-58
2021/08/09 05:49:39;;;;;;;11.53;11.03;;;23.20;88.60;;;;;;3612724;39;20443;-56
2021/08/09 05:52:07;;;;;;;10.50;10.00;;;23.20;88.60;;;;;;3612925;39;20443;-58
2021/08/09 05:54:34;;;;;;;11.40;10.90;;;23.20;89.00;;;;;;3611949;39;20509;-58
2021/08/09 05:57:02;;;;;;;11.77;11.27;;;23.20;87.20;;;;;;3607405;39;20466;-58
2021/08/09 05:59:29;;;;;;;11.60;10.90;;;23.10;87.50;;;;;;3605575;39;21332;-58
2021/08/09 06:01:57;;;;;;;11.90;11.10;;;23.10;87.20;;;;;;3607738;39;20701;-58
2021/08/09 06:04:28;;;;;;;12.50;11.57;;;23.10;86.70;;;;;;3610515;39;20450;-59
2021/08/09 06:06:55;;;;;;;11.50;11.00;;;23.10;87.40;;;;;;3610539;39;20458;-58
2021/08/09 06:09:24;;;;;;;12.80;11.93;;;23.00;86.80;;;;;;3612558;39;20459;-59
2021/08/09 06:11:52;;;;;;;11.97;11.20;;;23.00;86.10;;;;;;3610766;39;20471;-59
2021/08/09 06:14:20;;;;;;;12.70;12.00;;;22.90;86.80;;;;;;3608750;39;20451;-58
2021/08/09 06:16:47;;;;;;;11.80;11.20;;;22.70;84.60;;;;;;3611195;39;20447;-59
2021/08/09 06:19:17;;;;;;;12.03;11.53;;;22.00;85.20;;;;;;3607097;39;21351;-57
2021/08/09 06:21:46;;;;;;;11.40;10.90;;;21.50;86.50;;;;;;3607613;39;20511;-57
2021/08/09 06:24:14;;;;;;;12.20;11.60;;;20.90;87.60;;;;;;3607660;39;20565;-58
2021/08/09 06:26:45;;;;;;;12.33;11.63;;;20.60;88.90;;;;;;3610994;39;20477;-58
2021/08/09 06:29:12;;;;;;;11.70;11.10;;;20.30;90.00;;;;;;3607291;39;20837;-56
2021/08/09 06:31:41;;;;;;;12.30;11.60;;;20.10;90.40;;;;;;3604721;39;20565;-57
2021/08/09 06:34:09;;;;;;;11.83;11.33;;;19.80;91.00;;;;;;3604284;39;20927;-57
2021/08/09 06:36:38;;;;;;;11.90;11.20;;;19.70;91.00;;;;;;3605315;39;20745;-56
2021/08/09 06:39:10;;;;;;;11.77;11.37;;;19.60;91.00;;;;;;3607845;39;20851;-56
2021/08/09 06:41:38;;;;;;;11.67;11.17;;;19.60;91.30;;;;;;3604970;39;20502;-52
2021/08/09 06:44:16;;;;;;;12.23;11.60;;;19.60;91.70;;;;;;3605933;39;20676;-53
2021/08/09 06:46:44;;;;;;;11.53;11.03;;;19.60;91.70;;;;;;3605448;39;20471;-53
2021/08/09 06:49:13;;;;;;;12.00;11.53;;;19.60;91.80;;;;;;3618315;39;21078;-55
2021/08/09 06:51:41;;;;;;;12.83;12.07;;;19.80;92.00;;;;;;3609733;39;20466;-58
2021/08/09 06:54:11;;;;;;;13.20;12.10;;;19.80;92.10;;;;;;3615002;39;20496;-58
2021/08/09 06:56:48;;;;;;;13.07;12.40;;;19.90;92.30;;;;;;3616127;39;20437;-58
2021/08/09 06:59:17;;;;;;;12.63;11.93;;;19.90;92.50;;;;;;3615305;39;20481;-58
2021/08/09 07:01:48;;;;;;;12.73;12.10;;;20.00;92.80;;;;;;3616971;39;20457;-58
2021/08/09 07:04:16;;;;;;;11.83;11.33;;;20.10;92.80;;;;;;3616904;39;20491;-57
2021/08/09 07:06:44;;;;;;;11.80;11.30;;;20.10;92.70;;;;;;3610991;39;20483;-58
2021/08/09 07:09:13;;;;;;;13.13;12.53;;;20.20;92.50;;;;;;3600089;39;20472;-57
2021/08/09 07:11:43;;;;;;;12.90;12.17;;;20.30;92.70;;;;;;3599088;39;20458;-59
2021/08/09 07:14:11;;;;;;;11.50;10.80;;;20.30;93.10;;;;;;3598884;39;20488;-59
2021/08/09 07:16:42;;;;;;;11.20;10.70;;;20.30;93.00;;;;;;3599078;39;20729;-58
2021/08/09 07:19:16;;;;;;;12.13;11.37;;;20.40;92.40;;;;;;3599619;39;20467;-57
2021/08/09 07:21:44;;;;;;;12.20;11.60;;;20.50;92.60;;;;;;3599007;39;20475;-59
2021/08/09 07:24:14;;;;;;;11.93;11.43;;;20.50;92.50;;;;;;3599156;39;20534;-58
2021/08/09 07:26:43;;;;;;;11.83;11.33;;;20.70;92.90;;;;;;3600773;39;20443;-57
2021/08/09 07:29:11;;;;;;;11.40;10.90;;;20.80;92.60;;;;;;3596356;39;20469;-59
2021/08/09 07:31:40;;;;;;;12.67;11.77;;;20.80;92.00;;;;;;3592286;39;20585;-58
2021/08/09 07:34:11;;;;;;;11.00;10.50;;;20.90;92.00;;;;;;3587627;39;20504;-58
2021/08/09 07:36:43;;;;;;;10.67;10.27;;;21.00;92.00;;;;;;3586279;39;20926;-59
2021/08/09 07:39:15;;;;;;;11.30;10.80;;;21.10;92.30;;;;;;3585021;39;20467;-59
2021/08/09 07:41:44;;;;;;;10.97;10.47;;;21.20;92.00;;;;;;3586837;39;20545;-58
2021/08/09 07:44:12;;;;;;;11.10;10.60;;;21.30;91.90;;;;;;3587667;39;20488;-59
2021/08/09 07:46:42;;;;;;;10.33;9.93;;;21.40;91.60;;;;;;3587560;39;20460;-58
2021/08/09 07:49:11;;;;;;;10.40;10.00;;;21.50;91.90;;;;;;3584548;39;20522;-58
2021/08/09 07:51:40;;;;;;;11.20;10.67;;;21.60;91.80;;;;;;3585196;39;20472;-57
2021/08/09 07:54:09;;;;;;;11.10;10.60;;;21.70;91.40;;;;;;3585337;39;20464;-59
2021/08/09 07:56:38;;;;;;;11.40;10.80;;;21.80;91.30;;;;;;3592865;39;21300;-58
2021/08/09 07:59:06;;;;;;;10.77;10.17;;;21.90;91.50;;;;;;3605683;39;20482;-58
2021/08/09 08:01:33;;;;;;;10.90;10.50;;;22.00;91.50;;;;;;3613327;39;20549;-57
2021/08/09 08:04:02;;;;;;;11.27;10.77;;;22.10;91.40;;;;;;3601254;39;20538;-57
2021/08/09 08:06:30;;;;;;;10.13;9.73;;;22.10;91.00;;;;;;3602965;39;20944;-56
2021/08/09 08:08:57;;;;;;;10.43;10.10;;;22.30;90.80;;;;;;3610840;39;20459;-58
2021/08/09 08:11:24;;;;;;;11.10;10.60;;;22.20;89.00;;;;;;3616535;39;20984;-59
2021/08/09 08:13:55;;;;;;;10.87;10.27;;;22.20;89.00;;;;;;3608901;39;20441;-59
2021/08/09 08:16:23;;;;;;;10.23;9.93;;;22.30;89.30;;;;;;3607305;39;20458;-58
2021/08/09 08:18:51;;;;;;;10.40;10.00;;;22.40;89.70;;;;;;3613135;39;20464;-57
2021/08/09 08:21:21;;;;;;;10.30;10.00;;;22.40;88.60;;;;;;3606030;39;20442;-59
2021/08/09 08:23:48;;;;;;;10.57;10.17;;;22.40;89.00;;;;;;3608781;39;20441;-58
2021/08/09 08:26:16;;;;;;;10.37;10.03;;;22.50;89.30;;;;;;3606568;39;20513;-57
2021/08/09 08:28:45;;;;;;;11.00;10.60;;;22.50;89.30;;;;;;3606795;39;20458;-57
2021/08/09 08:31:14;;;;;;;11.50;11.10;;;22.60;89.60;;;;;;3605864;39;20461;-58
2021/08/09 08:33:41;;;;;;;10.50;10.20;;;22.60;89.70;;;;;;3605102;39;20527;-57
2021/08/09 08:36:10;;;;;;;10.97;10.57;;;22.70;89.80;;;;;;3603871;39;20465;-57
2021/08/09 08:38:37;;;;;;;11.40;10.83;;;22.70;89.70;;;;;;3615463;39;20477;-57
2021/08/09 08:41:07;;;;;;;10.37;10.07;;;22.70;89.80;;;;;;3608464;39;20472;-59
2021/08/09 08:43:35;;;;;;;10.93;10.53;;;22.70;89.20;;;;;;3606448;39;20529;-58
2021/08/09 08:46:04;;;;;;;11.80;11.10;;;22.70;89.10;;;;;;3618790;39;20886;-56
2021/08/09 08:48:36;;;;;;;11.73;11.17;;;22.70;89.30;;;;;;3609044;39;20470;-56
2021/08/09 08:51:04;;;;;;;11.30;10.90;;;22.80;89.50;;;;;;3616910;39;20466;-56
2021/08/09 08:53:34;;;;;;;11.73;10.73;;;22.80;89.50;;;;;;3615981;39;20434;-56
2021/08/09 08:56:06;;;;;;;11.03;10.63;;;22.80;89.30;;;;;;3614197;39;21215;-57
2021/08/09 08:58:33;;;;;;;11.30;10.80;;;22.80;89.30;;;;;;3617265;39;20657;-57
2021/08/09 09:01:01;;;;;;;11.00;10.60;;;22.80;89.30;;;;;;3618745;39;20465;-57
2021/08/09 09:03:29;;;;;;;11.57;11.07;;;22.80;89.30;;;;;;3618628;39;20459;-58
2021/08/09 09:06:00;;;;;;;11.60;11.10;;;22.90;89.20;;;;;;3615374;39;20458;-59
2021/08/09 09:08:42;;;;;;;10.90;10.40;;;22.90;89.20;;;;;;3620535;39;20462;-58
2021/08/09 09:11:12;;;;;;;11.00;10.57;;;22.90;89.30;;;;;;3619355;39;21171;-58
2021/08/09 09:13:55;;;;;;;11.00;10.30;;;22.90;89.00;;;;;;3614754;39;20456;-58
2021/08/09 09:16:23;;;;;;;11.00;10.50;;;22.90;89.00;;;;;;3617559;39;20458;-58
2021/08/09 09:18:53;;;;;;;11.23;10.63;;;22.90;88.90;;;;;;3615883;39;20830;-56
2021/08/09 09:21:30;;;;;;;10.63;10.23;;;22.90;88.70;;;;;;3609859;39;20481;-58
2021/08/09 09:24:08;;;;;;;11.03;10.53;;;22.90;88.50;;;;;;3607503;39;20774;-58
2021/08/09 09:26:37;;;;;;;11.90;11.30;;;22.90;87.50;;;;;;3612246;39;20481;-58
2021/08/09 09:29:10;;;;;;;11.00;10.67;;;22.90;87.00;;;;;;3611909;39;20542;-58
2021/08/09 09:31:37;;;;;;;11.10;10.60;;;22.90;87.00;;;;;;3610283;39;20461;-58
2021/08/09 09:34:08;;;;;;;11.10;10.70;;;22.90;86.90;;;;;;3609735;39;20483;-58
2021/08/09 09:36:53;;;;;;;10.83;10.43;;;22.90;86.80;;;;;;3611647;39;20469;-57
2021/08/09 09:39:28;;;;;;;10.87;10.47;;;23.00;87.00;;;;;;3590221;39;20497;-58
2021/08/09 09:41:57;;;;;;;10.77;10.37;;;23.00;86.60;;;;;;3610146;39;20774;-55
2021/08/09 09:44:25;;;;;;;11.00;10.50;;;23.00;86.60;;;;;;3609468;39;20550;-57
2021/08/09 09:46:52;;;;;;;11.50;10.73;;;23.00;86.50;;;;;;3610482;39;20959;-58
2021/08/09 09:49:36;;;;;;;11.00;10.50;;;23.00;85.70;;;;;;3615708;39;20442;-59
2021/08/09 09:52:04;;;;;;;10.90;10.50;;;23.00;85.50;;;;;;3612415;39;20879;-58
2021/08/09 09:54:32;;;;;;;12.07;11.40;;;23.00;85.30;;;;;;3610369;39;20446;-58
2021/08/09 09:57:01;;;;;;;12.13;11.53;;;23.00;85.50;;;;;;3612426;39;20722;-59
2021/08/09 09:59:29;;;;;;;11.87;11.37;;;23.00;85.70;;;;;;3611478;39;20462;-59
2021/08/09 10:01:56;;;;;;;11.30;10.80;;;23.10;85.80;;;;;;3611225;39;20763;-59
2021/08/09 10:04:25;;;;;;;11.20;10.70;;;23.10;85.30;;;;;;3606882;39;20756;-58
2021/08/09 10:06:52;;;;;;;11.83;10.90;;;23.10;85.40;;;;;;3612236;39;20566;-59
2021/08/09 10:09:21;;;;;;;11.50;11.00;;;23.10;85.50;;;;;;3611333;39;20530;-59
2021/08/09 10:11:49;;;;;;;11.53;11.03;;;23.10;85.50;;;;;;3611000;39;20477;-59
2021/08/09 10:14:17;;;;;;;11.00;10.60;;;23.10;85.70;;;;;;3605598;39;21107;-57
2021/08/09 10:16:47;;;;;;;11.23;10.83;;;23.10;85.90;;;;;;3607388;39;20450;-56
2021/08/09 10:19:15;;;;;;;11.50;10.80;;;23.10;85.80;;;;;;3602778;39;20814;-56
2021/08/09 10:21:42;;;;;;;10.63;10.13;;;23.10;85.80;;;;;;3603448;39;20573;-55
2021/08/09 10:24:38;;;;;;;11.73;11.10;;;23.10;85.40;;;;;;3603702;39;20543;-55
2021/08/09 10:27:05;;;;;;;11.60;11.07;;;23.10;85.70;;;;;;3599575;39;20957;-56
2021/08/09 10:29:33;;;;;;;11.60;11.10;;;23.10;86.20;;;;;;3604237;39;20484;-56
2021/08/09 10:32:19;;;;;;;11.60;10.80;;;23.20;86.50;;;;;;3604966;39;20464;-56
2021/08/09 10:34:49;;;;;;;11.20;10.60;;;23.10;86.80;;;;;;3603616;39;20693;-57
2021/08/09 10:37:19;;;;;;;11.47;10.70;;;23.10;86.80;;;;;;3600289;39;20702;-56
2021/08/09 10:39:55;;;;;;;11.00;10.50;;;23.10;86.80;;;;;;3592299;39;20889;-53
2021/08/09 10:42:36;;;;;;;10.93;10.53;;;23.10;86.60;;;;;;3609835;39;20963;-55
2021/08/09 10:45:06;;;;;;;11.50;10.90;;;23.20;86.50;;;;;;3600509;39;20482;-57
2021/08/09 10:47:57;;;;;;;11.67;11.17;;;23.20;86.30;;;;;;3602694;39;20451;-57
2021/08/09 10:50:51;;;;;;;11.37;10.90;;;23.20;86.20;;;;;;3605458;39;20566;-57
2021/08/09 10:53:45;;;;;;;11.00;10.40;;;23.20;86.00;;;;;;3592244;39;20711;-56
2021/08/09 10:56:48;;;;;;;11.03;10.53;;;23.20;86.00;;;;;;3604014;39;20498;-58
2021/08/09 10:59:44;;;;;;;10.90;10.37;;;23.20;85.80;;;;;;3574686;39;20568;-55
2021/08/09 11:02:17;;;;;;;10.00;9.70;;;23.20;85.00;;;;;;3608508;39;20558;-59
2021/08/09 11:04:45;;;;;;;10.70;10.30;;;23.20;85.20;;;;;;3595546;39;20915;-58
2021/08/09 11:07:17;;;;;;;11.00;10.40;;;23.20;84.90;;;;;;3605936;39;20466;-59
2021/08/09 11:09:46;;;;;;;10.63;10.23;;;23.20;85.00;;;;;;3605371;39;20466;-58
2021/08/09 11:12:21;;;;;;;11.57;11.07;;;23.20;85.10;;;;;;3600673;39;20496;-58
2021/08/09 11:15:12;;;;;;;11.80;11.20;;;23.20;85.00;;;;;;3595724;39;20465;-59
2021/08/09 11:17:54;;;;;;;10.37;9.97;;;23.20;85.00;;;;;;3606202;39;20833;-58
2021/08/09 11:20:25;;;;;;;10.90;10.40;;;23.20;84.60;;;;;;3605149;39;20568;-58
2021/08/09 11:23:02;;;;;;;11.90;11.00;;;23.20;84.50;;;;;;3605870;39;20703;-59
2021/08/09 11:25:32;;;;;;;10.30;9.90;;;23.20;84.50;;;;;;3604896;39;20507;-59
2021/08/09 11:28:05;;;;;;;11.50;11.00;;;23.20;84.50;;;;;;3605596;39;21201;-59
2021/08/09 11:30:48;;;;;;;11.23;10.63;;;23.20;84.60;;;;;;3604878;39;21366;-58
2021/08/09 11:33:27;;;;;;;10.90;10.50;;;23.20;84.70;;;;;;3606084;39;20455;-60
2021/08/09 11:35:56;;;;;;;10.60;10.20;;;23.20;83.90;;;;;;3603987;39;20446;-58
2021/08/09 11:38:24;;;;;;;10.47;10.17;;;23.20;83.90;;;;;;3605973;39;20458;-58
2021/08/09 11:40:54;;;;;;;11.10;10.50;;;23.20;84.00;;;;;;3602605;39;20844;-59
2021/08/09 11:43:28;;;;;;;10.60;10.20;;;23.20;83.70;;;;;;3600730;39;20646;-59
2021/08/09 11:46:01;;;;;;;10.73;10.33;;;23.20;82.60;;;;;;3605795;39;21116;-59
2021/08/09 11:48:29;;;;;;;10.90;10.50;;;23.20;82.80;;;;;;3605388;39;20544;-58
2021/08/09 11:51:00;;;;;;;10.70;10.17;;;23.30;83.10;;;;;;3601694;39;20696;-59
2021/08/09 11:53:27;;;;;;;11.00;10.43;;;23.20;82.80;;;;;;3601966;39;21116;-59
2021/08/09 11:56:09;;;;;;;10.20;9.90;;;23.30;82.70;;;;;;3603830;39;20518;-57
2021/08/09 11:58:39;;;;;;;11.43;10.73;;;23.30;82.90;;;;;;3602434;39;20673;-58
2021/08/09 12:01:07;;;;;;;10.97;10.47;;;23.30;82.80;;;;;;3603196;39;20999;-58
2021/08/09 12:03:35;;;;;;;11.23;10.60;;;23.30;82.70;;;;;;3601985;39;20466;-57
2021/08/09 12:06:22;;;;;;;9.30;8.90;;;23.30;82.70;;;;;;3602657;39;20478;-58
2021/08/09 12:08:57;;;;;;;9.93;9.47;;;23.30;82.40;;;;;;3605236;39;20792;-58
2021/08/09 12:11:30;;;;;;;9.67;9.37;;;23.30;82.20;;;;;;3606128;39;20780;-54
2021/08/09 12:14:12;;;;;;;9.90;9.40;;;23.30;82.10;;;;;;3604594;39;20458;-53
2021/08/09 12:16:51;;;;;;;9.67;9.27;;;23.30;81.90;;;;;;3597879;39;21201;-56
2021/08/09 12:19:21;;;;;;;9.60;9.20;;;23.30;81.80;;;;;;3606739;39;20466;-58
2021/08/09 12:21:49;;;;;;;10.30;9.80;;;23.30;81.70;;;;;;3606995;39;21006;-57
2021/08/09 12:24:24;;;;;;;9.80;9.43;;;23.30;81.70;;;;;;3610591;39;20473;-57
2021/08/09 12:26:53;;;;;;;9.97;9.63;;;23.30;81.70;;;;;;3613436;39;20458;-58
2021/08/09 12:29:23;;;;;;;10.03;9.47;;;23.30;81.70;;;;;;3616878;39;20985;-57
2021/08/09 12:31:51;;;;;;;9.70;9.30;;;23.30;81.40;;;;;;3609217;39;20808;-58
2021/08/09 12:34:22;;;;;;;9.77;9.37;;;23.30;81.60;;;;;;3611220;39;20717;-57
2021/08/09 12:36:52;;;;;;;9.67;9.27;;;23.30;81.60;;;;;;3607617;39;20742;-56
2021/08/09 12:39:34;;;;;;;10.17;9.63;;;23.30;81.50;;;;;;3604067;39;20453;-57
2021/08/09 12:42:16;;;;;;;10.40;9.87;;;23.30;81.50;;;;;;3600295;39;20493;-59
2021/08/09 12:44:46;;;;;;;10.20;9.70;;;23.30;81.40;;;;;;3603404;39;20466;-60
2021/08/09 12:47:13;;;;;;;10.10;9.60;;;23.30;81.30;;;;;;3611443;39;20652;-58